Time;durP1;ratioP1;P1;durP2;ratioP2;P2;SDS_P1;SDS_P2;PMS_P1;PMS_P2;Temp;Humidity;BMP_temperature;BMP_pressure;BME280_temperature;BME280_humidity;BME280_pressure;Samples;Min_cycle;Max_cycle;Signal;HPM_P1;HPM_P2
2021/12/28 00:00:57;;;;;;;30.70;21.25;;;;;;;5.48;100.00;99123.16;6195267;23;20071;-79
2021/12/28 00:03:25;;;;;;;33.42;21.85;;;;;;;5.52;100.00;99119.28;6204060;23;20017;-80
2021/12/28 00:05:52;;;;;;;29.92;20.90;;;;;;;5.51;100.00;99110.69;6205316;23;20028;-79
2021/12/28 00:08:19;;;;;;;32.83;21.63;;;;;;;5.52;100.00;99108.91;6195055;23;20337;-81
2021/12/28 00:10:46;;;;;;;29.00;20.90;;;;;;;5.48;100.00;99105.81;6195914;23;20032;-80
2021/12/28 00:13:15;;;;;;;30.58;20.48;;;;;;;5.48;100.00;99117.97;6196616;23;20017;-81
2021/12/28 00:15:49;;;;;;;32.90;20.90;;;;;;;5.45;100.00;99113.09;6199427;23;20115;-80
2021/12/28 00:18:15;;;;;;;34.58;21.75;;;;;;;5.42;100.00;99110.81;6204674;23;20075;-80
2021/12/28 00:20:48;;;;;;;31.42;20.95;;;;;;;5.37;100.00;99100.91;6199787;23;20061;-79
2021/12/28 00:23:21;;;;;;;36.08;21.38;;;;;;;5.37;100.00;99098.31;6193301;23;20026;-79
2021/12/28 00:25:50;;;;;;;32.47;21.33;;;;;;;5.38;100.00;99096.53;6192966;23;20027;-78
2021/12/28 00:28:17;;;;;;;34.97;21.27;;;;;;;5.33;100.00;99086.66;6192999;23;20031;-79
2021/12/28 00:30:45;;;;;;;34.40;20.85;;;;;;;5.38;100.00;99092.16;6194906;23;20409;-79
2021/12/28 00:33:15;;;;;;;34.80;20.77;;;;;;;5.39;100.00;99093.78;6189793;23;20021;-79
2021/12/28 00:35:43;;;;;;;30.25;19.88;;;;;;;5.28;100.00;99086.31;6188043;23;20023;-79
2021/12/28 00:38:14;;;;;;;30.83;20.13;;;;;;;5.31;100.00;99086.00;6188763;23;20021;-80
2021/12/28 00:40:41;;;;;;;32.17;19.88;;;;;;;5.32;100.00;99090.22;6187713;23;20117;-80
2021/12/28 00:43:14;;;;;;;29.35;18.67;;;;;;;5.13;100.00;99077.56;6188333;23;20050;-80
2021/12/28 00:45:41;;;;;;;30.25;18.90;;;;;;;5.23;100.00;99079.00;6191059;23;20037;-81
2021/12/28 00:48:12;;;;;;;29.73;18.60;;;;;;;5.28;100.00;99073.34;6189538;23;20096;-80
2021/12/28 00:50:39;;;;;;;25.73;17.17;;;;;;;5.30;100.00;99056.66;6192034;23;20028;-81
2021/12/28 00:53:14;;;;;;;29.23;18.83;;;;;;;5.30;100.00;99064.44;6188168;23;20056;-80
2021/12/28 00:55:42;;;;;;;29.02;17.50;;;;;;;5.37;100.00;99071.56;6190256;23;20445;-80
2021/12/28 00:58:09;;;;;;;27.30;17.02;;;;;;;5.46;100.00;99061.06;6190568;23;20016;-78
2021/12/28 01:00:38;;;;;;;29.15;18.15;;;;;;;5.54;100.00;99053.28;6187904;23;20416;-79
2021/12/28 01:03:08;;;;;;;30.50;17.05;;;;;;;5.61;100.00;99053.44;6186528;23;20405;-79
2021/12/28 01:05:35;;;;;;;31.00;17.20;;;;;;;5.65;100.00;99045.16;6188004;23;20072;-78
2021/12/28 01:08:02;;;;;;;27.20;17.00;;;;;;;5.63;100.00;99054.09;6188864;23;20031;-78
2021/12/28 01:10:32;;;;;;;29.05;16.65;;;;;;;5.62;100.00;99042.91;6189630;23;20281;-79
2021/12/28 01:13:00;;;;;;;24.63;15.77;;;;;;;5.61;100.00;99049.06;6191385;23;20021;-79
2021/12/28 01:15:29;;;;;;;25.77;16.48;;;;;;;5.64;100.00;99040.16;6191444;23;20095;-79
2021/12/28 01:17:57;;;;;;;27.25;16.05;;;;;;;5.63;100.00;99039.34;6192565;23;20017;-79
2021/12/28 01:20:25;;;;;;;29.25;16.67;;;;;;;5.62;100.00;99042.09;6197455;23;20079;-79
2021/12/28 01:22:51;;;;;;;27.55;16.38;;;;;;;5.60;100.00;99044.03;6193267;23;20013;-79
2021/12/28 01:25:20;;;;;;;29.08;16.23;;;;;;;5.58;100.00;99045.97;6195975;23;20017;-79
2021/12/28 01:27:48;;;;;;;20.80;14.95;;;;;;;5.57;100.00;99042.56;6199173;23;20024;-79
2021/12/28 01:30:19;;;;;;;25.58;15.48;;;;;;;5.51;100.00;99045.81;6197334;23;20014;-79
2021/12/28 01:32:46;;;;;;;22.90;15.40;;;;;;;5.46;100.00;99036.91;6194749;23;20017;-79
2021/12/28 01:35:15;;;;;;;25.52;14.98;;;;;;;5.51;100.00;99045.00;6197442;23;20021;-80
2021/12/28 01:37:43;;;;;;;29.42;15.00;;;;;;;5.55;100.00;99038.53;6198312;23;20021;-79
2021/12/28 01:40:13;;;;;;;20.40;14.35;;;;;;;5.54;100.00;99036.91;6200732;23;20021;-79
2021/12/28 01:43:13;;;;;;;24.58;14.98;;;;;;;5.58;100.00;99041.59;6198577;23;20017;-79
2021/12/28 01:45:44;;;;;;;25.95;14.35;;;;;;;5.54;100.00;99035.13;6071068;23;20023;-79
2021/12/28 01:48:14;;;;;;;30.55;13.30;;;;;;;5.50;100.00;99030.41;6169837;23;20021;-79
2021/12/28 01:50:41;;;;;;;29.95;13.07;;;;;;;5.57;100.00;99039.97;6195074;23;20075;-80
2021/12/28 01:53:08;;;;;;;21.23;12.45;;;;;;;5.49;100.00;99037.38;6189810;23;20021;-80
2021/12/28 01:55:37;;;;;;;23.58;11.57;;;;;;;5.58;100.00;99045.97;6188933;23;20029;-79
2021/12/28 01:58:05;;;;;;;26.70;11.52;;;;;;;5.60;100.00;99033.66;6187906;23;20461;-79
2021/12/28 02:00:34;;;;;;;30.23;12.50;;;;;;;5.63;100.00;99034.16;6188167;23;20028;-79
2021/12/28 02:03:07;;;;;;;33.70;12.18;;;;;;;5.63;100.00;99033.34;6186984;23;20108;-78
2021/12/28 02:05:34;;;;;;;31.38;11.13;;;;;;;5.71;100.00;99029.91;6186123;23;20025;-78
2021/12/28 02:08:00;;;;;;;32.05;12.60;;;;;;;5.80;100.00;99023.72;6185871;23;20104;-78
2021/12/28 02:10:27;;;;;;;29.00;12.88;;;;;;;5.84;100.00;99025.81;6186069;23;20067;-79
2021/12/28 02:12:54;;;;;;;33.00;12.45;;;;;;;5.83;100.00;99032.00;6188126;23;20020;-79
2021/12/28 02:15:21;;;;;;;32.00;12.48;;;;;;;5.75;100.00;99016.44;6187875;23;20076;-79
2021/12/28 02:17:49;;;;;;;30.40;12.85;;;;;;;5.82;100.00;99021.78;6188105;23;20017;-79
2021/12/28 02:20:20;;;;;;;30.42;13.15;;;;;;;5.80;100.00;99019.34;6188391;23;20469;-79
2021/12/28 02:22:47;;;;;;;26.27;12.55;;;;;;;5.82;100.00;99021.78;6188831;23;20308;-79
2021/12/28 02:25:16;;;;;;;34.58;13.00;;;;;;;5.76;100.00;99017.25;6193628;23;20082;-80
2021/12/28 02:27:43;;;;;;;26.27;12.23;;;;;;;5.71;100.00;99014.31;6195942;23;20428;-79
2021/12/28 02:30:15;;;;;;;31.48;12.80;;;;;;;5.76;100.00;99006.84;6196256;23;20020;-79
2021/12/28 02:32:42;;;;;;;26.77;13.45;;;;;;;5.84;100.00;99009.44;6190123;23;20020;-78
2021/12/28 02:35:11;;;;;;;30.63;13.05;;;;;;;5.92;100.00;99006.88;6193685;23;20013;-78
2021/12/28 02:37:39;;;;;;;28.17;12.57;;;;;;;5.94;100.00;99010.91;6190423;23;20409;-78
2021/12/28 02:40:09;;;;;;;34.03;12.77;;;;;;;5.90;100.00;99009.63;6190501;23;20210;-79
2021/12/28 02:42:36;;;;;;;24.23;12.18;;;;;;;6.04;100.00;99012.53;6192310;23;20021;-78
2021/12/28 02:45:09;;;;;;;30.73;11.23;;;;;;;6.01;100.00;99020.66;6192917;23;20472;-79
2021/12/28 02:47:39;;;;;;;28.35;10.75;;;;;;;6.13;100.00;99009.75;6189838;23;20051;-78
2021/12/28 02:50:10;;;;;;;31.60;12.35;;;;;;;6.17;100.00;99008.41;6188523;23;20046;-78
2021/12/28 02:52:41;;;;;;;30.45;12.07;;;;;;;6.20;100.00;99005.47;6188116;23;20401;-78
2021/12/28 02:55:11;;;;;;;23.83;10.98;;;;;;;6.22;100.00;99008.72;6189574;23;20021;-78
2021/12/28 02:57:45;;;;;;;27.42;10.55;;;;;;;6.27;100.00;99008.22;6186972;23;20079;-78
2021/12/28 03:00:15;;;;;;;28.38;11.02;;;;;;;6.30;100.00;99015.69;6184240;23;20076;-78
2021/12/28 03:02:42;;;;;;;30.25;10.43;;;;;;;6.33;100.00;99010.16;6184348;23;20021;-78
2021/12/28 03:05:09;;;;;;;29.40;10.80;;;;;;;6.37;100.00;99015.81;6184882;23;20466;-80
2021/12/28 03:07:36;;;;;;;24.50;10.40;;;;;;;6.40;100.00;98995.50;6187137;23;20017;-78
2021/12/28 03:10:05;;;;;;;28.20;9.82;;;;;;;6.43;100.00;98994.38;6186201;23;20044;-78
2021/12/28 03:12:32;;;;;;;27.00;9.75;;;;;;;6.51;100.00;98992.53;6185610;23;20465;-77
2021/12/28 03:14:59;;;;;;;30.70;9.27;;;;;;;6.56;100.00;98986.84;6186951;23;20020;-79
2021/12/28 03:17:25;;;;;;;35.55;11.68;;;;;;;6.68;100.00;98982.03;6189379;23;20040;-78
2021/12/28 03:19:52;;;;;;;30.17;8.85;;;;;;;6.73;100.00;98980.56;6189837;23;20085;-79
2021/12/28 03:22:19;;;;;;;30.45;9.63;;;;;;;6.80;100.00;98978.88;6188157;23;20417;-78
2021/12/28 03:24:46;;;;;;;33.63;9.77;;;;;;;6.87;100.00;98964.22;6187898;23;20493;-79
2021/12/28 03:27:16;;;;;;;30.25;8.90;;;;;;;6.89;100.00;98964.06;6184759;23;20353;-79
2021/12/28 03:29:43;;;;;;;25.15;9.07;;;;;;;6.84;100.00;98954.16;6186923;23;20072;-78
2021/12/28 03:32:10;;;;;;;25.38;9.45;;;;;;;6.93;100.00;98962.72;6188437;23;20068;-79
2021/12/28 03:34:37;;;;;;;32.70;9.07;;;;;;;6.89;100.00;98954.47;6189061;23;20091;-79
2021/12/28 03:37:04;;;;;;;38.70;9.77;;;;;;;6.91;100.00;98968.09;6189614;23;20335;-79
2021/12/28 03:39:31;;;;;;;33.50;10.05;;;;;;;6.92;100.00;98954.13;6192593;23;20067;-80
2021/12/28 03:41:57;;;;;;;32.67;9.45;;;;;;;6.91;100.00;98946.47;6194115;23;20047;-79
2021/12/28 03:44:26;;;;;;;34.05;10.45;;;;;;;6.96;100.00;98942.38;6192720;23;20021;-80
2021/12/28 03:46:53;;;;;;;26.80;8.82;;;;;;;6.85;100.00;98929.78;6193545;23;20027;-79
2021/12/28 03:49:19;;;;;;;35.80;11.00;;;;;;;6.83;100.00;98939.53;6192618;23;20410;-79
2021/12/28 03:51:50;;;;;;;33.20;8.50;;;;;;;6.89;100.00;98949.25;6193698;23;20040;-80
2021/12/28 03:54:20;;;;;;;38.05;10.07;;;;;;;6.87;100.00;98945.22;6192023;23;20017;-80
2021/12/28 03:56:48;;;;;;;39.03;10.30;;;;;;;6.96;100.00;98938.97;6195540;23;20039;-80
2021/12/28 03:59:16;;;;;;;33.45;9.52;;;;;;;6.90;100.00;98916.28;6192467;23;20021;-80
2021/12/28 04:01:53;;;;;;;31.80;9.88;;;;;;;7.01;100.00;98921.06;6192746;23;20021;-80
2021/12/28 04:04:20;;;;;;;37.22;9.25;;;;;;;7.05;100.00;98931.94;6193029;23;20035;-79
2021/12/28 04:06:47;;;;;;;36.30;9.40;;;;;;;7.08;100.00;98915.97;6194179;23;20025;-80
2021/12/28 04:09:22;;;;;;;37.97;9.10;;;;;;;7.14;100.00;98920.44;6192175;23;20021;-80
2021/12/28 04:11:50;;;;;;;34.67;8.88;;;;;;;7.15;100.00;98919.47;6191998;23;20025;-79
2021/12/28 04:14:18;;;;;;;39.17;8.27;;;;;;;7.09;100.00;98904.59;6189910;23;20028;-83
2021/12/28 04:16:46;;;;;;;28.48;8.15;;;;;;;7.07;100.00;98909.97;6193228;23;20460;-82
2021/12/28 04:19:13;;;;;;;35.45;9.13;;;;;;;7.10;100.00;98906.19;6192675;23;20032;-82
2021/12/28 04:21:45;;;;;;;35.75;8.25;;;;;;;7.10;100.00;98913.97;6194080;23;20025;-83
2021/12/28 04:24:23;;;;;;;36.40;8.87;;;;;;;7.08;100.00;98900.38;6193165;23;20013;-83
2021/12/28 04:26:54;;;;;;;31.45;8.10;;;;;;;7.11;100.00;98894.78;6194565;23;20109;-84
2021/12/28 04:29:30;;;;;;;35.50;8.05;;;;;;;7.07;100.00;98902.16;6192853;23;20482;-84
2021/12/28 04:32:21;;;;;;;;;;;;;;;;;;;;;
2021/12/28 04:34:56;;;;;;;46.40;9.10;;;;;;;7.05;100.00;98895.53;6191420;23;20017;-84
2021/12/28 04:37:46;;;;;;;31.58;8.35;;;;;;;7.12;100.00;98901.59;6193003;23;20049;-83
2021/12/28 04:40:36;;;;;;;33.83;8.43;;;;;;;7.10;100.00;98893.97;6193880;23;20021;-84
2021/12/28 04:43:11;;;;;;;40.35;8.55;;;;;;;7.15;100.00;98901.25;6194425;23;20044;-83
2021/12/28 04:45:40;;;;;;;23.88;7.97;;;;;;;7.24;100.00;98910.63;6194219;23;20083;-83
2021/12/28 04:48:12;;;;;;;33.33;8.55;;;;;;;7.17;100.00;98894.91;6193706;23;20017;-83
2021/12/28 04:50:41;;;;;;;36.00;8.43;;;;;;;7.26;100.00;98903.44;6191881;23;20021;-83
2021/12/28 04:53:12;;;;;;;38.47;7.75;;;;;;;7.29;100.00;98887.47;6191132;23;20013;-83
2021/12/28 04:55:42;;;;;;;35.08;8.32;;;;;;;7.37;100.00;98900.41;6190718;23;20013;-83
2021/12/28 04:58:19;;;;;;;30.33;8.30;;;;;;;7.28;100.00;98875.47;6191417;23;20017;-82
2021/12/28 05:00:55;;;;;;;31.25;8.15;;;;;;;7.26;100.00;98867.81;6193015;23;20017;-84
2021/12/28 05:03:30;;;;;;;37.78;8.73;;;;;;;7.29;100.00;98877.06;6190850;23;20047;-84
2021/12/28 05:06:04;;;;;;;29.98;7.25;;;;;;;7.42;100.00;98879.88;6132067;23;20031;-83
2021/12/28 05:08:36;;;;;;;30.48;7.70;;;;;;;7.39;100.00;98877.63;6193563;23;20071;-84
2021/12/28 05:11:14;;;;;;;36.85;8.05;;;;;;;7.37;100.00;98864.00;6195148;23;20031;-83
2021/12/28 05:13:45;;;;;;;38.78;8.77;;;;;;;7.37;100.00;98868.38;6195396;23;20021;-84
2021/12/28 05:16:17;;;;;;;30.65;8.25;;;;;;;7.37;100.00;98861.38;6224789;23;20356;-84
2021/12/28 05:18:58;;;;;;;35.67;8.27;;;;;;;7.50;100.00;98871.19;6225057;23;20016;-84
2021/12/28 05:21:34;;;;;;;31.83;8.98;;;;;;;7.36;100.00;98862.38;6225147;23;20036;-84
2021/12/28 05:24:18;;;;;;;30.25;7.93;;;;;;;7.43;100.00;98847.66;6225034;23;20021;-84
2021/12/28 05:27:00;;;;;;;31.70;8.57;;;;;;;7.49;100.00;98852.16;6225966;23;20314;-84
2021/12/28 05:29:40;;;;;;;37.25;9.32;;;;;;;7.43;100.00;98844.25;6225539;23;20025;-83
2021/12/28 05:32:10;;;;;;;33.55;8.45;;;;;;;7.44;100.00;98851.88;6222942;23;20060;-83
2021/12/28 05:35:05;;;;;;;37.88;10.07;;;;;;;7.57;100.00;98859.84;6223719;23;20096;-83
2021/12/28 05:37:39;;;;;;;38.65;9.98;;;;;;;7.44;100.00;98838.06;6222534;23;20036;-84
2021/12/28 05:43:13;;;;;;;36.20;9.57;;;;;;;7.40;100.00;98848.03;6219968;23;20232;-84
2021/12/28 05:45:54;;;;;;;33.92;10.30;;;;;;;7.52;100.00;98851.78;6222564;23;20017;-83
2021/12/28 05:51:16;;;;;;;27.13;10.75;;;;;;;7.53;100.00;98848.22;6179937;23;20129;-83
2021/12/28 05:54:15;;;;;;;34.78;11.15;;;;;;;7.54;100.00;98849.81;6218979;23;20013;-83
2021/12/28 05:56:46;;;;;;;37.95;12.52;;;;;;;7.47;100.00;98829.91;6216997;23;20024;-84
2021/12/28 06:02:38;;;;;;;37.08;11.18;;;;;;;7.46;100.00;98820.47;6102776;23;20101;-84
2021/12/28 06:05:09;;;;;;;34.78;11.35;;;;;;;7.44;100.00;98818.06;6105513;23;20102;-84
2021/12/28 06:07:38;;;;;;;37.88;12.23;;;;;;;7.48;100.00;98828.91;6226504;23;20026;-84
2021/12/28 06:10:07;;;;;;;33.83;12.57;;;;;;;7.47;100.00;98814.28;6225736;23;20072;-84
2021/12/28 06:13:09;;;;;;;32.35;12.63;;;;;;;7.49;100.00;98807.09;6227390;23;20085;-84
2021/12/28 06:15:36;;;;;;;33.67;12.75;;;;;;;7.54;100.00;98823.78;6226719;23;20320;-84
2021/12/28 06:18:15;;;;;;;33.50;12.13;;;;;;;7.59;100.00;98837.03;6228769;23;20016;-83
2021/12/28 06:20:43;;;;;;;41.00;13.27;;;;;;;7.56;100.00;98832.19;6228131;23;20028;-84
2021/12/28 06:23:19;;;;;;;35.85;13.27;;;;;;;7.59;100.00;98834.44;6227930;23;20039;-84
2021/12/28 06:26:11;;;;;;;33.45;13.23;;;;;;;7.57;100.00;98833.81;6227662;23;20025;-85
2021/12/28 06:28:38;;;;;;;33.58;11.98;;;;;;;7.53;100.00;98821.38;6227427;23;20051;-82
2021/12/28 06:31:10;;;;;;;34.70;12.70;;;;;;;7.52;100.00;98823.16;6225767;23;20044;-85
2021/12/28 06:33:43;;;;;;;38.25;13.20;;;;;;;7.61;100.00;98835.06;6226092;23;20032;-85
2021/12/28 06:36:13;;;;;;;33.05;13.13;;;;;;;7.58;100.00;98834.63;6225263;23;20024;-84
2021/12/28 06:39:16;;;;;;;26.83;13.35;;;;;;;7.53;100.00;98824.78;6223766;23;20016;-84
2021/12/28 06:41:56;;;;;;;31.67;12.18;;;;;;;7.62;100.00;98834.09;6224348;23;20020;-83
2021/12/28 06:44:53;;;;;;;28.10;12.35;;;;;;;7.61;100.00;98844.69;6223878;23;20017;-83
2021/12/28 06:47:21;;;;;;;32.13;11.85;;;;;;;7.52;100.00;98823.16;6222648;23;20338;-83
2021/12/28 06:49:52;;;;;;;35.20;13.82;;;;;;;7.60;100.00;98827.44;6221583;23;20020;-82
2021/12/28 06:52:19;;;;;;;34.65;13.60;;;;;;;7.53;100.00;98816.97;6221798;23;20027;-83
2021/12/28 06:54:49;;;;;;;35.97;13.65;;;;;;;7.52;100.00;98815.34;6221818;23;20054;-83
2021/12/28 06:57:21;;;;;;;31.58;11.85;;;;;;;7.53;100.00;98823.97;6221991;23;20023;-82
2021/12/28 06:59:53;;;;;;;30.88;13.00;;;;;;;7.53;100.00;98831.78;6223525;23;20028;-82
2021/12/28 07:02:25;;;;;;;29.63;11.57;;;;;;;7.52;100.00;98828.38;6222347;23;20380;-83
2021/12/28 07:04:57;;;;;;;27.13;12.30;;;;;;;7.62;100.00;98852.31;6222258;23;20277;-83
2021/12/28 07:07:24;;;;;;;23.88;12.13;;;;;;;7.62;100.00;98838.47;6222193;23;20075;-81
2021/12/28 07:09:53;;;;;;;28.58;11.35;;;;;;;7.62;100.00;98847.09;6225110;23;20040;-84
2021/12/28 07:12:21;;;;;;;28.73;11.85;;;;;;;7.69;100.00;98857.59;6224288;23;20043;-82
2021/12/28 07:14:48;;;;;;;26.27;11.45;;;;;;;7.54;100.00;98826.41;6235930;23;20448;-82
2021/12/28 07:17:15;;;;;;;30.10;10.93;;;;;;;7.59;100.00;98828.44;6228767;23;20017;-82
2021/12/28 07:19:42;;;;;;;29.08;10.65;;;;;;;7.69;100.00;98843.78;6228375;23;20020;-82
2021/12/28 07:22:08;;;;;;;25.25;10.73;;;;;;;7.73;100.00;98832.03;6227197;23;20028;-82
2021/12/28 07:24:35;;;;;;;27.65;9.80;;;;;;;7.75;99.98;98832.66;6226357;23;20213;-83
2021/12/28 07:27:02;;;;;;;29.52;11.40;;;;;;;7.66;100.00;98817.13;6226966;23;20031;-82
2021/12/28 07:29:30;;;;;;;32.08;12.25;;;;;;;7.65;100.00;98810.28;6223865;23;20021;-82
2021/12/28 07:31:57;;;;;;;23.25;10.27;;;;;;;7.60;99.94;98804.81;6222342;23;20013;-82
2021/12/28 07:34:24;;;;;;;25.65;10.63;;;;;;;7.55;100.00;98811.59;6223407;23;20024;-82
2021/12/28 07:36:51;;;;;;;25.00;10.38;;;;;;;7.53;99.69;98801.34;6223791;23;20013;-83
2021/12/28 07:39:17;;;;;;;22.20;10.27;;;;;;;7.39;100.00;98796.97;6221254;23;20016;-82
2021/12/28 07:41:44;;;;;;;26.60;10.07;;;;;;;7.33;100.00;98800.28;6225163;23;20016;-81
2021/12/28 07:44:11;;;;;;;27.85;9.35;;;;;;;7.22;100.00;98818.94;6223323;23;20016;-82
2021/12/28 07:46:39;;;;;;;25.00;9.82;;;;;;;7.20;100.00;98828.69;6222619;23;20024;-82
2021/12/28 07:49:06;;;;;;;30.05;10.85;;;;;;;7.08;100.00;98814.53;6222372;23;20079;-82
2021/12/28 07:51:33;;;;;;;26.17;10.32;;;;;;;7.11;100.00;98829.75;6222330;23;20028;-82
2021/12/28 07:54:00;;;;;;;26.02;10.63;;;;;;;7.09;100.00;98826.56;6221413;23;20039;-82
2021/12/28 07:56:27;;;;;;;22.23;10.93;;;;;;;7.03;100.00;98827.28;6224045;23;20025;-82
2021/12/28 07:58:54;;;;;;;34.80;13.63;;;;;;;7.18;100.00;98838.47;6221840;23;20017;-83
2021/12/28 08:01:22;;;;;;;30.05;14.77;;;;;;;7.42;100.00;98845.25;6223842;23;20020;-85
2021/12/28 08:03:52;;;;;;;27.65;11.63;;;;;;;7.46;100.00;98836.91;6225132;23;20016;-84
2021/12/28 08:06:18;;;;;;;35.90;11.45;;;;;;;7.44;100.00;98846.69;6224628;23;20012;-84
2021/12/28 08:08:45;;;;;;;25.27;10.88;;;;;;;7.62;100.00;98852.31;6225375;23;20020;-85
2021/12/28 08:11:12;;;;;;;25.73;11.20;;;;;;;7.63;100.00;98859.13;6224245;23;20020;-83
2021/12/28 08:13:42;;;;;;;42.17;22.13;;;;;;;7.61;99.93;98855.09;6224622;23;20017;-83
2021/12/28 08:16:11;;;;;;;29.27;14.27;;;;;;;7.72;100.00;98861.66;6226490;23;20020;-82
2021/12/28 08:18:38;;;;;;;31.42;12.35;;;;;;;7.61;99.99;98858.50;6228085;23;20028;-83
2021/12/28 08:21:06;;;;;;;30.95;13.70;;;;;;;7.65;100.00;98849.34;6228073;23;20016;-82
2021/12/28 08:23:37;;;;;;;28.23;10.35;;;;;;;7.64;100.00;98858.16;6225440;23;20023;-82
2021/12/28 08:26:04;;;;;;;24.98;10.15;;;;;;;7.78;99.62;98842.69;6224526;23;20067;-82
2021/12/28 08:28:36;;;;;;;17.55;9.35;;;;;;;7.76;99.33;98842.06;6225177;23;20044;-83
2021/12/28 08:31:09;;;;;;;25.10;9.32;;;;;;;7.74;99.33;98828.44;6227036;23;20021;-83
2021/12/28 08:33:39;;;;;;;21.02;9.13;;;;;;;7.79;98.87;98836.50;6227650;23;20021;-83
2021/12/28 08:36:07;;;;;;;25.10;8.93;;;;;;;7.72;98.93;98827.81;6226566;23;20016;-82
2021/12/28 08:49:02;;;;;;;19.40;8.45;;;;;;;7.84;98.76;98845.38;6105823;23;20402;-82
2021/12/28 08:51:35;;;;;;;17.48;7.90;;;;;;;7.88;98.73;98853.66;6193117;23;20028;-81
2021/12/28 08:57:25;;;;;;;21.25;8.88;;;;;;;7.76;98.72;98835.06;6180844;23;20013;-81
2021/12/28 09:07:06;;;;;;;16.90;8.88;;;;;;;7.85;98.31;98827.97;6055494;23;20026;-81
2021/12/28 09:09:33;;;;;;;17.15;8.27;;;;;;;7.98;98.56;98841.16;6110243;23;20037;-78
2021/12/28 09:12:00;;;;;;;16.02;8.35;;;;;;;7.96;98.22;98840.53;6204162;23;20073;-80
2021/12/28 09:14:26;;;;;;;19.80;9.63;;;;;;;7.93;98.63;98840.88;6199422;23;20064;-78
2021/12/28 09:16:53;;;;;;;20.65;8.45;;;;;;;8.00;98.78;98844.38;6203713;23;20029;-80
2021/12/28 09:19:20;;;;;;;17.30;7.47;;;;;;;8.07;98.12;98836.63;6207432;23;20099;-81
2021/12/28 09:21:48;;;;;;;16.98;7.55;;;;;;;8.09;98.04;98832.03;6236126;23;20024;-80
2021/12/28 09:24:15;;;;;;;13.73;8.02;;;;;;;8.16;97.67;98838.94;6233047;23;20022;-80
2021/12/28 09:26:42;;;;;;;14.70;8.30;;;;;;;8.19;97.47;98841.16;6226906;23;20031;-80
2021/12/28 09:29:09;;;;;;;22.98;9.73;;;;;;;8.29;97.21;98839.09;6228197;23;20057;-80
2021/12/28 09:31:36;;;;;;;19.58;9.95;;;;;;;8.26;97.03;98831.63;6228306;23;20074;-79
2021/12/28 09:34:03;;;;;;;19.75;10.80;;;;;;;8.35;96.88;98836.75;6232256;23;20027;-79
2021/12/28 09:36:30;;;;;;;13.27;7.47;;;;;;;8.32;96.94;98828.31;6229867;23;20334;-80
2021/12/28 09:38:58;;;;;;;11.23;7.43;;;;;;;8.34;96.56;98840.34;6226222;23;20020;-80
2021/12/28 09:41:25;;;;;;;10.73;6.75;;;;;;;8.27;96.80;98822.81;6223661;23;20036;-79
2021/12/28 09:43:52;;;;;;;12.45;6.47;;;;;;;8.26;96.96;98829.03;6222185;23;20453;-79
2021/12/28 09:46:19;;;;;;;11.68;5.93;;;;;;;8.34;96.73;98837.75;6222199;23;20021;-80
2021/12/28 09:48:46;;;;;;;12.02;6.15;;;;;;;8.27;96.94;98830.63;6220016;23;20364;-80
2021/12/28 09:51:15;;;;;;;9.60;5.75;;;;;;;8.40;96.87;98834.41;6220494;23;20353;-80
2021/12/28 09:53:44;;;;;;;10.63;6.00;;;;;;;8.43;96.65;98834.03;6219069;23;20012;-80
2021/12/28 09:56:13;;;;;;;10.73;8.13;;;;;;;8.44;96.89;98831.25;6221156;23;20009;-79
2021/12/28 09:58:41;;;;;;;11.68;7.15;;;;;;;8.43;96.50;98834.03;6218041;23;20021;-80
2021/12/28 10:01:10;;;;;;;10.68;6.00;;;;;;;8.54;96.67;98836.94;6219099;23;20091;-80
2021/12/28 10:03:37;;;;;;;15.55;5.80;;;;;;;8.48;96.37;98829.09;6222317;23;20020;-80
2021/12/28 10:06:15;;;;;;;11.88;5.35;;;;;;;8.52;96.39;98827.69;6223204;23;20075;-79
2021/12/28 10:08:43;;;;;;;7.80;5.10;;;;;;;8.56;96.58;98834.13;6224570;23;20031;-80
2021/12/28 10:11:10;;;;;;;8.80;5.30;;;;;;;8.59;96.07;98823.34;6222281;23;20020;-79
2021/12/28 10:13:38;;;;;;;8.02;5.00;;;;;;;8.59;96.46;98818.94;6222920;23;20482;-79
2021/12/28 10:16:05;;;;;;;8.38;5.15;;;;;;;8.58;96.62;98816.50;6221325;23;20024;-80
2021/12/28 10:18:32;;;;;;;10.10;5.60;;;;;;;8.60;96.87;98822.34;6223197;23;20048;-79
2021/12/28 10:21:01;;;;;;;7.72;5.10;;;;;;;8.53;97.26;98800.63;6225255;23;20021;-79
2021/12/28 10:23:32;;;;;;;11.52;6.78;;;;;;;8.51;97.50;98802.59;6224025;23;20059;-79
2021/12/28 10:26:01;;;;;;;8.60;5.28;;;;;;;8.47;97.62;98802.22;6224112;23;20388;-79
2021/12/28 10:28:32;;;;;;;8.45;5.72;;;;;;;8.47;97.76;98788.38;6220637;23;20067;-80
2021/12/28 10:31:03;;;;;;;9.55;5.68;;;;;;;8.50;97.71;98790.59;6220923;23;20084;-80
2021/12/28 10:33:32;;;;;;;45.42;26.83;;;;;;;8.62;97.45;98781.25;6224534;23;20013;-80
2021/12/28 10:36:02;;;;;;;11.05;7.25;;;;;;;8.83;97.26;98773.41;6223290;23;20017;-78
2021/12/28 10:38:31;;;;;;;8.82;4.97;;;;;;;8.75;96.67;98770.94;6226122;23;20040;-79
2021/12/28 10:40:59;;;;;;;8.80;5.00;;;;;;;8.74;96.70;98768.50;6228337;23;20024;-78
2021/12/28 10:43:28;;;;;;;9.27;4.70;;;;;;;8.77;96.54;98768.13;6228373;23;20040;-79
2021/12/28 10:46:00;;;;;;;9.57;7.20;;;;;;;8.89;96.56;98777.06;6229166;23;20021;-79
2021/12/28 10:48:31;;;;;;;7.32;5.30;;;;;;;9.06;96.00;98772.34;6230927;23;20022;-79
2021/12/28 10:51:01;;;;;;;6.65;4.70;;;;;;;9.09;96.13;98772.75;6231061;23;20016;-79
2021/12/28 10:53:36;;;;;;;8.20;6.20;;;;;;;9.14;95.69;98766.97;6231035;23;20047;-79
2021/12/28 10:56:05;;;;;;;7.35;5.63;;;;;;;9.09;95.71;98762.31;6231119;23;20028;-81
2021/12/28 10:58:39;;;;;;;6.68;4.90;;;;;;;8.96;96.21;98759.66;6233038;23;20039;-79
2021/12/28 11:01:10;;;;;;;6.50;4.68;;;;;;;9.12;95.77;98756.72;6232259;23;20016;-80
2021/12/28 11:03:41;;;;;;;6.13;4.80;;;;;;;9.15;95.42;98752.94;6231008;23;20040;-79
2021/12/28 11:06:15;;;;;;;8.80;4.70;;;;;;;9.15;95.49;98745.09;6230531;23;20051;-79
2021/12/28 11:08:44;;;;;;;8.07;4.97;;;;;;;9.27;95.67;98743.56;6231472;23;20051;-81
2021/12/28 11:11:12;;;;;;;6.22;4.55;;;;;;;9.39;95.05;98734.19;6231604;23;20072;-80
2021/12/28 11:13:39;;;;;;;7.35;4.38;;;;;;;9.39;95.00;98731.56;6231232;23;20009;-79
2021/12/28 11:16:09;;;;;;;5.70;4.03;;;;;;;9.49;94.62;98729.38;6235078;23;20017;-79
2021/12/28 11:18:38;;;;;;;7.50;4.15;;;;;;;9.43;94.67;98724.97;6233223;23;20020;-79
2021/12/28 11:21:16;;;;;;;7.82;5.07;;;;;;;9.59;94.97;98711.56;6227540;23;20123;-79
2021/12/28 11:23:44;;;;;;;7.63;4.10;;;;;;;9.62;94.49;98705.13;6226845;23;20095;-79
2021/12/28 11:26:19;;;;;;;7.57;4.20;;;;;;;9.70;94.16;98704.97;6227305;23;20023;-79
2021/12/28 11:28:54;;;;;;;5.00;3.90;;;;;;;9.67;94.46;98701.94;6227996;23;20044;-80
2021/12/28 11:31:23;;;;;;;5.35;3.90;;;;;;;9.62;94.21;98690.28;6227415;23;20024;-81
2021/12/28 11:33:55;;;;;;;7.00;4.32;;;;;;;9.64;94.35;98687.47;6227536;23;20020;-79
2021/12/28 11:36:24;;;;;;;4.88;4.10;;;;;;;9.65;94.89;98674.22;6226436;23;20021;-79
2021/12/28 11:38:52;;;;;;;5.50;4.10;;;;;;;9.74;94.79;98682.66;6229793;23;20021;-79
2021/12/28 11:41:20;;;;;;;9.18;3.83;;;;;;;9.83;94.15;98670.22;6227709;23;20080;-79
2021/12/28 11:43:48;;;;;;;6.60;3.40;;;;;;;9.75;94.91;98673.84;6230638;23;20055;-80
2021/12/28 11:46:16;;;;;;;5.10;3.70;;;;;;;9.80;94.94;98671.44;6230731;23;20095;-79
2021/12/28 11:48:44;;;;;;;7.28;4.00;;;;;;;9.77;95.42;98668.41;6228586;23;20028;-79
2021/12/28 11:51:13;;;;;;;4.63;2.90;;;;;;;9.77;95.93;98684.88;6230454;23;20051;-80
2021/12/28 11:53:42;;;;;;;5.10;2.80;;;;;;;9.69;96.94;98684.25;6231430;23;20089;-80
2021/12/28 11:56:11;;;;;;;5.38;2.17;;;;;;;9.70;97.12;98667.59;6230980;23;20024;-79
2021/12/28 11:59:00;;;;;;;2.70;1.73;;;;;;;9.64;97.58;98654.31;6231270;23;20056;-79
2021/12/28 12:01:41;;;;;;;2.10;1.90;;;;;;;9.60;97.89;98650.50;6230024;23;20024;-80
2021/12/28 12:04:57;;;;;;;2.63;1.88;;;;;;;9.62;98.56;98632.81;6232102;23;20338;-80
2021/12/28 12:07:37;;;;;;;1.67;1.35;;;;;;;9.60;98.44;98629.59;6233972;23;20020;-79
2021/12/28 12:10:30;;;;;;;2.38;2.17;;;;;;;9.62;98.36;98622.38;6233403;23;20017;-79
2021/12/28 12:13:19;;;;;;;2.60;1.80;;;;;;;9.60;98.10;98634.81;6203442;23;20075;-80